Time;durP1;ratioP1;P1;durP2;ratioP2;P2;SDS_P1;SDS_P2;PMS_P1;PMS_P2;Temp;Humidity;BMP_temperature;BMP_pressure;BME280_temperature;BME280_humidity;BME280_pressure;Samples;Min_cycle;Max_cycle;Signal;HPM_P1;HPM_P2
2023/07/30 00:01:17;;;;;;;6.90;5.10;;;;;;;18.86;75.94;99304.08;105542;1254;71978;-76
2023/07/30 00:03:44;;;;;;;7.70;4.90;;;;;;;18.83;76.16;99303.73;105489;1261;60418;-75
2023/07/30 00:06:12;;;;;;;10.50;5.50;;;;;;;18.79;76.19;99298.12;105558;1254;60344;-78
2023/07/30 00:08:39;;;;;;;9.00;5.10;;;;;;;18.82;76.14;99295.48;105461;1254;72557;-75
2023/07/30 00:11:07;;;;;;;6.70;5.10;;;;;;;18.87;76.01;99294.58;107016;1254;70077;-74
2023/07/30 00:13:34;;;;;;;6.00;5.50;;;;;;;18.88;75.92;99296.69;106286;1259;71007;-74
2023/07/30 00:16:02;;;;;;;6.10;5.50;;;;;;;18.87;75.89;99296.83;105994;1257;60395;-73
2023/07/30 00:18:30;;;;;;;6.00;5.40;;;;;;;18.82;76.03;99298.02;106027;1257;60378;-75
2023/07/30 00:20:57;;;;;;;6.00;5.50;;;;;;;18.79;76.03;99296.77;105819;1254;72618;-74
2023/07/30 00:23:25;;;;;;;7.50;5.40;;;;;;;18.74;76.19;99295.27;105590;1257;69074;-76
2023/07/30 00:25:52;;;;;;;5.50;5.00;;;;;;;18.71;76.41;99294.16;105471;1260;72462;-72
2023/07/30 00:28:20;;;;;;;5.80;5.20;;;;;;;18.75;76.50;99293.27;105508;1254;61625;-72
2023/07/30 00:30:48;;;;;;;6.50;5.50;;;;;;;18.78;76.42;99287.22;105747;1258;60407;-75
2023/07/30 00:33:16;;;;;;;10.40;5.30;;;;;;;18.75;76.46;99284.90;105489;1260;73851;-74
2023/07/30 00:35:43;;;;;;;6.90;5.20;;;;;;;18.71;76.72;99286.62;105584;1257;70590;-73
2023/07/30 00:38:10;;;;;;;6.10;5.50;;;;;;;18.67;76.69;99286.75;105568;1253;72963;-74
2023/07/30 00:40:41;;;;;;;5.10;4.70;;;;;;;18.63;77.06;99281.82;105817;1257;60473;-72
2023/07/30 00:43:09;;;;;;;8.60;4.90;;;;;;;18.59;77.13;99279.77;106020;1259;60430;-74
2023/07/30 00:45:37;;;;;;;4.90;4.50;;;;;;;18.63;77.22;99282.79;105779;1258;73690;-73
2023/07/30 00:48:05;;;;;;;5.50;4.40;;;;;;;18.68;77.27;99285.48;105640;1260;69011;-72
2023/07/30 00:50:33;;;;;;;6.70;5.60;;;;;;;18.66;77.34;99277.69;105535;1254;71186;-74
2023/07/30 00:53:00;;;;;;;5.90;5.20;;;;;;;18.61;77.49;99274.77;105407;1260;60538;-73
2023/07/30 00:55:28;;;;;;;7.00;5.20;;;;;;;18.56;77.78;99277.77;105649;1253;60477;-72
2023/07/30 00:57:56;;;;;;;7.20;5.40;;;;;;;18.49;78.01;99276.95;105481;1258;73898;-73
2023/07/30 01:00:24;;;;;;;6.40;4.90;;;;;;;18.42;78.27;99273.55;105696;1257;70216;-73
2023/07/30 01:02:52;;;;;;;5.60;5.10;;;;;;;18.43;78.45;99274.53;105561;1254;70481;-71
2023/07/30 01:05:20;;;;;;;7.80;5.20;;;;;;;18.44;78.49;99272.79;105538;1253;60459;-74
2023/07/30 01:07:47;;;;;;;8.80;5.00;;;;;;;18.37;78.74;99273.05;105531;1253;60603;-73
2023/07/30 01:10:15;;;;;;;6.90;4.90;;;;;;;18.31;79.10;99275.14;105972;1254;72474;-71
2023/07/30 01:12:43;;;;;;;6.10;4.90;;;;;;;18.24;79.31;99271.71;106134;1255;68111;-72
2023/07/30 01:15:10;;;;;;;7.60;5.10;;;;;;;18.19;79.54;99271.58;105968;1259;72691;-75
2023/07/30 01:17:38;;;;;;;8.30;4.90;;;;;;;18.16;79.68;99270.10;105395;1254;61676;-73
2023/07/30 01:20:06;;;;;;;5.40;4.80;;;;;;;18.21;79.57;99269.40;106191;1259;60462;-75
2023/07/30 01:22:34;;;;;;;5.50;4.60;;;;;;;18.24;79.44;99268.65;106219;1255;73932;-74
2023/07/30 01:25:01;;;;;;;5.60;5.10;;;;;;;18.24;79.49;99271.64;105728;1254;70916;-73
2023/07/30 01:27:30;;;;;;;6.30;5.20;;;;;;;18.21;79.81;99269.19;105554;1257;72692;-73
2023/07/30 01:30:33;;;;;;;6.00;5.20;;;;;;;18.14;79.97;99268.01;105876;1262;60444;-76
2023/07/30 01:33:01;;;;;;;6.20;5.50;;;;;;;18.07;80.21;99268.91;105577;1259;60448;-74
2023/07/30 01:35:29;;;;;;;5.20;4.70;;;;;;;18.04;80.39;99272.36;105502;1254;72542;-74
2023/07/30 01:37:56;;;;;;;6.40;4.90;;;;;;;18.09;80.26;99272.39;105554;1254;70426;-75
2023/07/30 01:40:24;;;;;;;5.60;5.10;;;;;;;18.16;80.16;99273.27;105755;1254;72784;-78
2023/07/30 01:42:52;;;;;;;5.40;4.90;;;;;;;18.13;80.36;99271.30;106872;1253;60351;-76
2023/07/30 01:45:19;;;;;;;5.60;5.10;;;;;;;18.07;80.44;99278.10;106659;1260;60537;-73
2023/07/30 01:47:47;;;;;;;6.00;5.40;;;;;;;18.03;80.45;99278.25;105562;1258;72994;-74
2023/07/30 01:50:15;;;;;;;5.50;4.90;;;;;;;18.00;80.48;99274.25;105617;1258;68842;-75
2023/07/30 01:52:42;;;;;;;6.80;4.50;;;;;;;18.05;80.25;99275.29;105444;1255;72706;-74
2023/07/30 01:55:10;;;;;;;6.20;4.80;;;;;;;18.11;80.27;99271.73;105440;1254;60420;-75
2023/07/30 01:57:37;;;;;;;5.80;5.20;;;;;;;18.09;80.39;99274.10;105888;1253;60404;-76
2023/07/30 02:00:06;;;;;;;6.50;5.80;;;;;;;18.04;80.49;99278.98;105777;1253;73558;-73
2023/07/30 02:02:35;;;;;;;5.80;5.10;;;;;;;18.00;80.79;99278.59;105828;1253;69227;-76
2023/07/30 02:05:03;;;;;;;5.90;5.30;;;;;;;17.96;80.95;99282.08;106120;1257;72753;-76
2023/07/30 02:07:31;;;;;;;7.00;5.00;;;;;;;17.97;80.97;99281.73;106617;1253;61692;-75
2023/07/30 02:09:59;;;;;;;4.60;4.20;;;;;;;17.99;80.90;99279.06;106922;1253;60365;-73
2023/07/30 02:12:26;;;;;;;6.50;4.70;;;;;;;17.97;81.11;99275.70;107937;1254;71652;-76
2023/07/30 02:14:54;;;;;;;6.00;4.70;;;;;;;17.93;81.18;99275.13;106986;1253;69965;-76
2023/07/30 02:17:21;;;;;;;6.20;5.60;;;;;;;17.92;81.26;99275.36;106831;1254;71085;-75
2023/07/30 02:19:48;;;;;;;5.00;4.50;;;;;;;17.90;81.36;99279.77;106319;1258;61222;-75
2023/07/30 02:22:16;;;;;;;6.00;5.40;;;;;;;17.93;81.37;99277.16;105831;1253;60595;-79
2023/07/30 02:24:44;;;;;;;5.80;5.00;;;;;;;17.94;81.37;99276.48;105573;1258;73951;-74
2023/07/30 02:27:11;;;;;;;5.80;5.10;;;;;;;17.90;81.28;99277.54;105688;1253;70325;-76
2023/07/30 02:29:39;;;;;;;5.80;5.30;;;;;;;17.88;81.59;99281.06;107129;1253;71279;-72
2023/07/30 02:32:07;;;;;;;6.40;5.10;;;;;;;17.85;81.80;99283.63;108637;1253;60487;-75
2023/07/30 02:34:35;;;;;;;6.10;5.10;;;;;;;17.80;82.14;99284.11;108625;1253;61325;-73
2023/07/30 02:37:02;;;;;;;7.30;5.00;;;;;;;17.83;82.10;99286.29;108011;1253;72540;-74
2023/07/30 02:39:30;;;;;;;6.50;4.80;;;;;;;17.87;82.00;99290.02;108146;1257;69045;-74
2023/07/30 02:41:58;;;;;;;5.50;5.10;;;;;;;17.87;82.03;99293.40;108671;1253;71420;-74
2023/07/30 02:44:25;;;;;;;8.40;5.70;;;;;;;17.85;82.07;99299.41;109122;1253;60332;-75
2023/07/30 02:46:53;;;;;;;6.50;5.90;;;;;;;17.85;82.19;99302.83;108673;1253;60394;-73
2023/07/30 02:49:21;;;;;;;6.10;5.50;;;;;;;17.84;82.24;99306.34;108860;1254;72656;-75
2023/07/30 02:51:48;;;;;;;8.90;4.80;;;;;;;17.89;82.06;99308.87;109056;1254;68717;-74
2023/07/30 02:54:17;;;;;;;6.80;5.40;;;;;;;17.93;81.97;99306.58;108757;1256;72622;-74
2023/07/30 02:56:45;;;;;;;7.70;5.50;;;;;;;17.93;82.07;99303.95;108329;1253;59246;-73
2023/07/30 02:59:13;;;;;;;12.40;6.10;;;;;;;17.92;82.22;99302.71;108184;1253;60532;-74
2023/07/30 03:01:40;;;;;;;8.70;5.20;;;;;;;17.92;82.35;99303.00;108571;1253;72582;-73
2023/07/30 03:04:08;;;;;;;8.50;5.50;;;;;;;17.93;82.35;99305.71;107634;1257;68957;-73
2023/07/30 03:06:36;;;;;;;6.90;5.40;;;;;;;18.03;82.04;99310.77;106272;1257;71227;-74
2023/07/30 03:09:03;;;;;;;9.40;5.20;;;;;;;18.11;81.82;99311.52;107899;1253;62290;-75
2023/07/30 03:11:31;;;;;;;7.50;5.40;;;;;;;18.12;81.83;99305.05;107283;1253;60455;-73
2023/07/30 03:13:59;;;;;;;12.30;5.40;;;;;;;18.12;81.76;99302.57;108943;1253;72564;-72
2023/07/30 03:16:26;;;;;;;9.90;5.80;;;;;;;18.13;81.68;99306.73;108691;1253;68736;-74
2023/07/30 03:18:54;;;;;;;8.90;5.80;;;;;;;18.18;81.57;99311.27;108700;1253;71268;-75
2023/07/30 03:21:21;;;;;;;7.40;5.90;;;;;;;18.29;81.43;99309.36;108009;1253;60908;-74
2023/07/30 03:23:49;;;;;;;8.80;5.70;;;;;;;18.40;81.14;99304.63;107933;1254;59104;-75
2023/07/30 03:26:17;;;;;;;8.30;6.00;;;;;;;18.42;81.07;99307.71;106717;1254;72797;-75
2023/07/30 03:28:44;;;;;;;8.90;5.90;;;;;;;18.46;81.01;99308.70;105678;1253;70196;-76
2023/07/30 03:31:12;;;;;;;8.00;5.70;;;;;;;18.45;81.07;99305.52;105376;1254;72745;-76
2023/07/30 03:33:43;;;;;;;7.80;6.10;;;;;;;18.46;81.09;99309.41;105397;1260;62642;-75
2023/07/30 03:36:11;;;;;;;7.70;5.50;;;;;;;18.52;81.06;99306.55;105552;1260;60384;-75
2023/07/30 03:38:39;;;;;;;9.80;6.50;;;;;;;18.58;80.98;99302.30;105697;1254;71961;-74
2023/07/30 03:41:06;;;;;;;9.30;5.80;;;;;;;18.60;81.14;99300.88;106643;1253;70351;-75
2023/07/30 03:43:34;;;;;;;11.50;7.60;;;;;;;18.59;81.31;99297.16;106271;1259;71410;-75
2023/07/30 03:46:02;;;;;;;9.20;6.40;;;;;;;18.60;81.39;99289.31;105582;1257;60410;-76
2023/07/30 03:48:30;;;;;;;8.80;6.30;;;;;;;18.62;81.29;99285.73;105543;1260;60385;-75
2023/07/30 03:50:58;;;;;;;6.70;5.30;;;;;;;18.73;81.31;99285.02;105330;1256;72660;-77
2023/07/30 03:53:26;;;;;;;8.10;6.10;;;;;;;18.86;81.12;99287.80;105464;1255;70120;-75
2023/07/30 03:55:53;;;;;;;9.20;5.70;;;;;;;18.91;81.03;99287.73;105430;1259;72712;-74
2023/07/30 03:58:21;;;;;;;8.10;6.00;;;;;;;18.94;81.04;99285.69;105500;1259;60495;-73
2023/07/30 04:00:49;;;;;;;8.40;5.80;;;;;;;18.96;80.98;99285.04;105784;1254;60482;-75
2023/07/30 04:03:16;;;;;;;9.00;6.20;;;;;;;18.99;81.07;99286.45;105922;1254;76112;-74
2023/07/30 04:05:44;;;;;;;12.50;5.90;;;;;;;19.11;80.83;99286.99;105485;1257;68802;-76
2023/07/30 04:08:12;;;;;;;9.40;6.40;;;;;;;19.23;80.47;99286.45;105826;1258;73914;-73
2023/07/30 04:10:39;;;;;;;9.00;6.30;;;;;;;19.30;80.29;99280.23;107716;1253;60157;-76
2023/07/30 04:13:07;;;;;;;8.10;6.90;;;;;;;19.36;80.16;99283.13;107902;1253;60608;-75
2023/07/30 04:15:35;;;;;;;11.10;7.60;;;;;;;19.44;80.11;99282.70;106783;1253;73307;-75
2023/07/30 04:18:03;;;;;;;8.20;6.40;;;;;;;19.52;79.76;99282.25;105612;1258;68996;-76
2023/07/30 04:20:31;;;;;;;7.80;6.40;;;;;;;19.62;79.30;99285.32;105540;1253;71431;-76
2023/07/30 04:22:59;;;;;;;10.70;6.00;;;;;;;19.82;78.86;99283.48;105987;1256;60464;-78
2023/07/30 04:25:27;;;;;;;7.50;6.20;;;;;;;20.03;78.15;99283.41;105790;1254;60604;-76
2023/07/30 04:27:55;;;;;;;8.10;7.00;;;;;;;20.19;77.75;99284.29;105967;1254;73845;-76
2023/07/30 04:30:24;;;;;;;7.10;6.40;;;;;;;20.38;77.14;99275.65;106142;1254;68926;-74
2023/07/30 04:32:52;;;;;;;7.90;6.70;;;;;;;20.58;76.35;99271.90;105809;1256;71957;-76
2023/07/30 04:35:19;;;;;;;6.60;6.00;;;;;;;20.80;75.64;99276.85;105923;1256;60539;-76
2023/07/30 04:37:47;;;;;;;7.40;6.40;;;;;;;21.00;74.99;99276.23;105846;1253;60784;-77
2023/07/30 04:40:15;;;;;;;7.70;7.00;;;;;;;21.18;74.37;99277.89;106310;1254;72645;-77
2023/07/30 04:42:42;;;;;;;7.10;6.40;;;;;;;21.33;73.73;99278.69;107240;1253;69395;-76
2023/07/30 04:45:10;;;;;;;7.40;6.70;;;;;;;21.53;73.03;99278.54;106836;1253;71139;-78
2023/07/30 04:47:40;;;;;;;9.30;7.10;;;;;;;21.72;72.37;99280.12;106359;1257;60399;-75
2023/07/30 04:50:08;;;;;;;10.00;9.10;;;;;;;21.77;71.91;99283.22;106281;1253;60580;-76
2023/07/30 04:52:35;;;;;;;7.80;6.90;;;;;;;21.80;71.74;99288.05;106339;1258;74391;-78
2023/07/30 04:55:04;;;;;;;7.60;6.60;;;;;;;21.90;71.60;99288.39;105724;1253;69404;-78
2023/07/30 04:57:32;;;;;;;7.10;6.50;;;;;;;22.02;71.26;99290.23;105551;1256;72629;-77
2023/07/30 05:00:00;;;;;;;8.00;6.90;;;;;;;22.11;70.67;99295.11;105594;1256;62303;-77
2023/07/30 05:02:28;;;;;;;8.60;6.90;;;;;;;22.15;70.08;99290.43;105645;1258;60501;-77
2023/07/30 05:04:55;;;;;;;7.20;6.60;;;;;;;22.23;69.94;99284.35;105482;1254;73924;-77
2023/07/30 05:07:23;;;;;;;7.20;6.50;;;;;;;22.39;69.60;99283.38;105509;1253;70608;-77
2023/07/30 05:09:50;;;;;;;7.40;6.70;;;;;;;22.54;69.19;99286.27;106021;1258;72696;-79
2023/07/30 05:12:18;;;;;;;8.60;6.60;;;;;;;22.64;68.68;99283.16;106251;1258;60535;-77
2023/07/30 05:14:45;;;;;;;6.70;6.00;;;;;;;22.72;68.20;99284.80;105864;1258;60432;-77
2023/07/30 05:17:13;;;;;;;7.20;6.10;;;;;;;22.79;67.47;99286.90;105465;1254;73874;-75
2023/07/30 05:19:40;;;;;;;6.20;5.50;;;;;;;22.81;67.11;99284.54;105450;1258;69189;-76
2023/07/30 05:22:09;;;;;;;5.30;4.70;;;;;;;22.81;66.49;99285.93;105514;1254;72637;-74
2023/07/30 05:24:36;;;;;;;8.70;5.60;;;;;;;22.76;66.50;99283.42;106139;1256;60952;-74
2023/07/30 05:27:05;;;;;;;6.00;5.40;;;;;;;22.72;66.48;99279.59;105567;1254;61101;-76
2023/07/30 05:29:34;;;;;;;6.70;5.70;;;;;;;22.70;66.40;99279.85;105935;1253;72969;-75
2023/07/30 05:32:01;;;;;;;5.70;5.20;;;;;;;22.71;66.43;99279.69;105989;1257;69071;-74
2023/07/30 05:34:29;;;;;;;5.70;5.30;;;;;;;22.73;66.24;99277.54;105573;1254;72121;-76
2023/07/30 05:36:57;;;;;;;5.60;5.10;;;;;;;22.76;66.06;99281.63;105574;1257;60462;-71
2023/07/30 05:39:24;;;;;;;5.60;5.10;;;;;;;22.79;66.08;99286.41;105958;1254;60570;-77
2023/07/30 05:41:52;;;;;;;6.30;5.70;;;;;;;22.77;66.18;99288.84;106263;1253;72784;-72
2023/07/30 05:44:19;;;;;;;6.30;5.70;;;;;;;22.80;66.38;99288.42;105335;1259;69241;-74
2023/07/30 05:46:47;;;;;;;6.80;6.10;;;;;;;22.85;66.09;99289.66;105559;1253;73110;-74
2023/07/30 05:49:14;;;;;;;6.70;6.10;;;;;;;22.91;66.08;99293.27;105429;1258;60435;-71
2023/07/30 05:51:42;;;;;;;6.90;5.60;;;;;;;22.96;66.05;99293.63;105427;1258;60377;-75
2023/07/30 05:54:09;;;;;;;6.30;5.70;;;;;;;23.00;66.08;99288.14;105503;1257;73735;-75
2023/07/30 05:56:37;;;;;;;6.00;5.20;;;;;;;23.05;65.66;99281.52;105480;1254;70175;-74
2023/07/30 05:59:04;;;;;;;5.20;4.70;;;;;;;23.11;65.40;99281.89;105470;1255;72679;-74
2023/07/30 06:01:32;;;;;;;6.00;4.80;;;;;;;23.15;64.76;99282.25;105629;1254;60515;-74
2023/07/30 06:03:59;;;;;;;6.90;4.60;;;;;;;23.20;64.52;99281.67;105627;1254;60441;-73
2023/07/30 06:06:27;;;;;;;5.20;4.70;;;;;;;23.22;64.52;99280.73;105549;1257;73823;-74
2023/07/30 06:08:55;;;;;;;6.30;5.20;;;;;;;23.26;64.32;99276.34;105959;1258;68886;-73
2023/07/30 06:11:22;;;;;;;5.50;4.50;;;;;;;23.30;63.99;99271.38;105964;1260;73053;-72
2023/07/30 06:13:50;;;;;;;5.50;4.70;;;;;;;23.35;63.94;99265.38;106120;1253;60566;-74
2023/07/30 06:16:18;;;;;;;4.50;4.10;;;;;;;23.43;64.00;99266.29;105561;1253;60471;-75
2023/07/30 06:18:46;;;;;;;4.90;4.50;;;;;;;23.54;62.92;99268.77;105605;1256;74838;-74
2023/07/30 06:21:14;;;;;;;4.00;3.70;;;;;;;23.60;62.35;99264.78;105532;1257;71080;-74
2023/07/30 06:23:41;;;;;;;5.10;4.40;;;;;;;23.64;62.30;99261.97;105588;1256;72806;-74
2023/07/30 06:26:09;;;;;;;4.50;3.90;;;;;;;23.73;61.80;99261.09;105291;1254;60438;-73
2023/07/30 06:28:36;;;;;;;4.80;3.60;;;;;;;23.82;61.26;99263.26;105424;1255;60420;-74
2023/07/30 06:31:04;;;;;;;3.50;3.20;;;;;;;23.91;60.24;99262.09;105566;1257;72505;-73
2023/07/30 06:33:32;;;;;;;4.90;3.20;;;;;;;23.99;58.95;99262.70;105571;1253;69944;-73
2023/07/30 06:35:59;;;;;;;2.60;2.40;;;;;;;24.00;56.88;99257.01;105802;1253;70465;-75
2023/07/30 06:38:27;;;;;;;2.80;2.60;;;;;;;23.96;55.63;99260.31;106450;1253;60560;-73
2023/07/30 06:40:57;;;;;;;3.80;2.90;;;;;;;23.92;55.35;99260.52;106122;1253;60435;-73
2023/07/30 06:43:25;;;;;;;4.50;3.00;;;;;;;23.91;55.74;99261.17;106274;1258;73821;-73
2023/07/30 06:45:53;;;;;;;3.70;3.00;;;;;;;23.89;55.88;99261.98;105992;1253;70130;-75
2023/07/30 06:48:21;;;;;;;4.90;3.90;;;;;;;23.90;56.01;99263.06;105904;1258;72437;-76
2023/07/30 06:50:49;;;;;;;3.70;3.10;;;;;;;23.90;56.07;99263.23;105498;1254;60550;-76
2023/07/30 06:53:16;;;;;;;5.10;3.10;;;;;;;23.86;56.58;99263.44;105498;1256;60531;-73
2023/07/30 06:55:44;;;;;;;3.60;2.30;;;;;;;23.87;56.87;99263.49;105846;1253;72586;-76
2023/07/30 06:58:11;;;;;;;3.90;3.20;;;;;;;23.92;56.48;99267.95;106610;1253;71249;-75
2023/07/30 07:00:39;;;;;;;4.40;3.30;;;;;;;23.92;56.13;99262.85;106869;1254;71385;-74
2023/07/30 07:03:06;;;;;;;4.50;3.40;;;;;;;23.88;55.96;99262.20;106256;1253;60423;-77
2023/07/30 07:05:34;;;;;;;3.20;2.90;;;;;;;23.87;55.93;99259.96;106485;1254;60378;-78
2023/07/30 07:08:02;;;;;;;4.10;2.90;;;;;;;23.85;56.32;99254.91;106191;1255;74859;-77
2023/07/30 07:10:30;;;;;;;4.80;3.00;;;;;;;23.87;56.56;99256.06;106971;1254;69136;-77
2023/07/30 07:12:57;;;;;;;3.80;3.10;;;;;;;23.95;57.03;99249.88;109006;1254;71583;-78
2023/07/30 07:15:24;;;;;;;3.30;3.00;;;;;;;24.11;56.61;99244.11;107691;1254;59175;-75
2023/07/30 07:17:52;;;;;;;4.10;3.00;;;;;;;24.24;56.20;99241.95;106776;1253;61412;-73
2023/07/30 07:20:20;;;;;;;3.50;3.00;;;;;;;24.33;55.94;99245.22;106274;1258;73236;-76
2023/07/30 07:22:48;;;;;;;3.80;3.00;;;;;;;24.41;55.78;99246.36;106464;1254;68532;-76
2023/07/30 07:25:18;;;;;;;3.30;3.10;;;;;;;24.52;55.00;99245.73;105988;1260;72107;-77
2023/07/30 07:27:46;;;;;;;3.60;3.30;;;;;;;24.60;54.98;99245.02;105982;1253;60543;-76
2023/07/30 07:30:14;;;;;;;3.70;3.10;;;;;;;24.68;55.20;99244.64;105581;1253;60578;-76
2023/07/30 07:32:42;;;;;;;3.80;3.20;;;;;;;24.76;55.28;99246.36;105881;1253;72636;-77
2023/07/30 07:35:10;;;;;;;3.50;3.00;;;;;;;24.86;55.25;99250.42;105776;1258;68920;-78
2023/07/30 07:37:37;;;;;;;3.70;3.10;;;;;;;24.96;54.90;99251.16;106155;1254;72819;-76
2023/07/30 07:40:06;;;;;;;4.20;3.00;;;;;;;25.02;54.66;99252.84;107804;1254;60433;-76
2023/07/30 07:42:33;;;;;;;4.50;3.50;;;;;;;25.07;54.16;99253.42;107602;1253;60521;-76
2023/07/30 07:45:01;;;;;;;4.40;3.40;;;;;;;25.07;54.42;99246.52;106610;1258;72538;-74
2023/07/30 07:47:28;;;;;;;3.20;2.90;;;;;;;25.04;54.99;99245.98;105763;1253;70427;-76
2023/07/30 07:49:56;;;;;;;3.70;3.30;;;;;;;25.02;55.23;99242.03;105577;1258;71906;-77
2023/07/30 07:52:23;;;;;;;4.10;3.60;;;;;;;25.04;55.32;99237.77;105501;1255;60413;-76
2023/07/30 07:54:51;;;;;;;5.10;3.30;;;;;;;25.12;55.68;99233.30;105331;1258;236647;-77
2023/07/30 07:59:45;;;;;;;5.80;3.50;;;;;;;25.56;54.58;99236.64;102669;1292;601479;-78
2023/07/30 08:02:13;;;;;;;11.20;3.00;;;;;;;25.74;54.15;99231.11;104873;1269;60103;-75
2023/07/30 08:04:41;;;;;;;8.30;3.40;;;;;;;25.98;54.31;99218.25;105243;1265;60043;-75
2023/07/30 08:07:09;;;;;;;3.50;3.20;;;;;;;26.26;53.79;99223.06;105872;1269;72232;-76
2023/07/30 08:09:37;;;;;;;10.10;3.80;;;;;;;26.44;53.12;99220.30;107356;1269;69063;-76
2023/07/30 08:12:05;;;;;;;3.60;3.30;;;;;;;26.46;52.70;99224.64;107605;1266;71302;-78
2023/07/30 08:14:32;;;;;;;4.80;3.20;;;;;;;26.41;52.59;99226.63;108109;1262;169596;-80
2023/07/30 08:17:00;;;;;;;3.00;2.80;;;;;;;26.36;53.22;99221.88;106423;1269;59278;-81
2023/07/30 08:19:28;;;;;;;3.90;3.10;;;;;;;26.34;52.99;99226.48;105538;1264;71065;-77
2023/07/30 08:21:56;;;;;;;3.80;3.20;;;;;;;26.25;52.65;99226.59;105623;1263;70021;-80
2023/07/30 08:24:24;;;;;;;4.90;3.10;;;;;;;26.12;53.18;99227.14;105879;1266;71420;-81
2023/07/30 08:26:51;;;;;;;3.80;3.40;;;;;;;26.02;53.60;99228.41;106183;1264;59693;-80
2023/07/30 08:29:19;;;;;;;3.80;3.50;;;;;;;25.91;53.74;99240.55;106263;1261;59702;-80
2023/07/30 08:31:46;;;;;;;4.40;3.70;;;;;;;25.76;53.82;99240.56;106375;1268;72171;-82
2023/07/30 08:34:14;;;;;;;3.90;3.60;;;;;;;25.56;54.16;99233.27;106240;1268;70316;-77
2023/07/30 08:36:41;;;;;;;3.40;3.10;;;;;;;25.44;54.94;99236.25;107292;1266;72707;-80
2023/07/30 08:39:09;;;;;;;3.90;3.60;;;;;;;25.39;55.11;99237.85;107601;1263;60370;-77
2023/07/30 08:41:37;;;;;;;3.80;3.40;;;;;;;25.31;55.58;99234.79;108917;1251;59609;-79
2023/07/30 08:44:05;;;;;;;3.90;3.30;;;;;;;25.20;55.94;99236.44;109148;1250;71782;-78
2023/07/30 08:46:32;;;;;;;3.40;3.10;;;;;;;25.12;56.18;99233.30;108847;1251;68999;-79
2023/07/30 08:49:01;;;;;;;3.90;3.60;;;;;;;25.06;56.71;99235.39;108759;1251;72737;-78
2023/07/30 08:51:28;;;;;;;4.00;3.50;;;;;;;25.00;57.18;99239.86;109368;1251;58785;-80
2023/07/30 08:53:58;;;;;;;4.50;3.30;;;;;;;24.90;58.09;99241.23;109111;1251;58738;-79
2023/07/30 08:56:26;;;;;;;5.10;3.50;;;;;;;24.80;59.12;99241.09;109055;1251;71470;-78
2023/07/30 08:58:57;;;;;;;4.30;3.30;;;;;;;24.68;60.70;99242.95;109069;1254;69230;-81
2023/07/30 09:01:30;;;;;;;5.90;3.60;;;;;;;24.58;61.72;99246.05;109238;1252;71783;-80
2023/07/30 09:04:00;;;;;;;;;;;;;;;24.42;63.14;99251.14;109426;1254;58979;-79
2023/07/30 09:06:32;;;;;;;3.60;3.30;;;;;;;24.22;63.47;99252.92;109198;1254;58526;-78
2023/07/30 09:09:00;;;;;;;4.60;3.90;;;;;;;24.01;64.08;99244.42;108841;1254;71813;-76
2023/07/30 09:11:27;;;;;;;5.00;3.70;;;;;;;23.83;64.79;99243.14;108158;1259;71113;-78
2023/07/30 09:13:57;;;;;;;4.30;3.50;;;;;;;23.72;66.06;99246.61;108306;1254;71200;-80
2023/07/30 09:19:20;;;;;;;4.30;3.80;;;;;;;23.61;67.61;99242.50;106081;1291;600129;-80
2023/07/30 09:21:47;;;;;;;4.60;3.80;;;;;;;23.55;67.90;99242.48;108612;1265;58797;-78
2023/07/30 09:24:22;;;;;;;5.30;3.80;;;;;;;23.53;68.09;99241.94;106603;1267;59232;-78
2023/07/30 09:26:49;;;;;;;6.40;3.50;;;;;;;23.50;68.32;99242.52;105181;1267;72996;-78
2023/07/30 09:29:17;;;;;;;4.20;3.80;;;;;;;23.47;69.04;99243.42;106724;1260;68926;-80
2023/07/30 09:31:54;;;;;;;4.30;3.90;;;;;;;23.45;69.32;99240.77;106159;1253;195691;-74
2023/07/30 09:34:24;;;;;;;4.40;3.90;;;;;;;23.41;69.02;99241.60;107083;1254;59336;-78
2023/07/30 09:36:54;;;;;;;5.20;4.50;;;;;;;23.34;68.90;99236.44;107332;1253;59490;-76
2023/07/30 09:39:23;;;;;;;4.90;4.20;;;;;;;23.30;69.05;99234.30;106680;1254;72281;-74
2023/07/30 09:41:52;;;;;;;4.50;4.00;;;;;;;23.26;68.86;99229.09;106844;1254;70264;-76
2023/07/30 09:44:20;;;;;;;5.40;4.00;;;;;;;23.21;69.01;99228.02;108499;1254;71361;-76
2023/07/30 09:46:49;;;;;;;6.40;4.50;;;;;;;23.18;68.94;99221.67;108369;1253;59666;-75
2023/07/30 09:49:17;;;;;;;5.20;4.00;;;;;;;23.18;68.84;99221.02;106097;1254;59733;-77
2023/07/30 09:51:45;;;;;;;5.40;3.90;;;;;;;23.18;68.23;99219.52;105792;1254;71392;-78
2023/07/30 09:54:13;;;;;;;5.30;4.00;;;;;;;23.18;67.61;99218.21;106055;1254;69625;-78
2023/07/30 09:56:41;;;;;;;4.10;3.70;;;;;;;23.17;67.07;99220.42;105780;1255;71810;-75
2023/07/30 09:59:09;;;;;;;7.90;4.10;;;;;;;23.19;66.34;99215.13;105982;1254;60036;-76
2023/07/30 10:01:44;;;;;;;4.10;3.70;;;;;;;23.25;65.87;99215.80;105976;1257;59567;-74
2023/07/30 10:04:12;;;;;;;4.00;3.60;;;;;;;23.31;65.38;99214.48;105912;1252;71945;-77
2023/07/30 10:06:42;;;;;;;5.50;4.10;;;;;;;23.41;64.83;99206.59;106147;1254;69065;-76
2023/07/30 10:09:10;;;;;;;3.60;3.30;;;;;;;23.51;64.96;99204.74;105945;1254;72902;-77
2023/07/30 10:11:38;;;;;;;4.70;3.60;;;;;;;23.64;64.58;99201.67;106102;1254;59631;-77
2023/07/30 10:14:06;;;;;;;4.20;3.70;;;;;;;23.73;63.30;99197.85;107708;1253;59206;-76
2023/07/30 10:16:33;;;;;;;3.10;2.70;;;;;;;23.80;62.59;99200.21;107445;1254;72274;-74
2023/07/30 10:19:01;;;;;;;5.60;3.90;;;;;;;23.90;63.01;99194.98;106524;1259;69008;-75
2023/07/30 10:21:29;;;;;;;3.40;3.10;;;;;;;24.08;62.85;99192.28;106364;1254;72360;-76
2023/07/30 10:24:04;;;;;;;4.80;2.90;;;;;;;24.32;62.05;99185.12;106735;1254;59627;-76
2023/07/30 10:26:33;;;;;;;3.30;3.00;;;;;;;24.58;61.61;99178.05;106620;1254;59532;-75
2023/07/30 10:29:10;;;;;;;4.10;3.40;;;;;;;24.89;60.72;99171.47;106443;1257;71883;-75
2023/07/30 10:31:40;;;;;;;4.30;3.40;;;;;;;25.30;60.21;99176.77;106781;1254;70172;-76
2023/07/30 10:34:09;;;;;;;4.20;3.30;;;;;;;25.74;59.64;99177.40;105858;1259;71692;-78
2023/07/30 10:36:43;;;;;;;4.10;3.60;;;;;;;26.19;59.23;99178.58;105772;1254;59731;-77
2023/07/30 10:39:21;;;;;;;7.00;5.40;;;;;;;26.52;57.77;99172.41;105782;1253;60941;-77
2023/07/30 10:41:50;;;;;;;5.20;3.60;;;;;;;26.69;56.84;99172.96;106143;1254;73097;-77
2023/07/30 10:44:21;;;;;;;3.60;3.30;;;;;;;26.80;57.00;99166.85;107084;1254;69292;-76
2023/07/30 10:46:49;;;;;;;4.00;3.60;;;;;;;27.02;56.63;99167.37;106886;1253;71481;-74
2023/07/30 10:49:16;;;;;;;4.10;3.20;;;;;;;27.17;55.50;99160.58;105699;1260;59615;-77
2023/07/30 10:51:44;;;;;;;4.40;3.40;;;;;;;27.25;55.66;99163.17;105802;1255;59277;-76
2023/07/30 10:54:11;;;;;;;3.20;2.90;;;;;;;27.41;55.23;99161.98;105578;1254;75992;-75
2023/07/30 10:56:40;;;;;;;4.70;3.40;;;;;;;27.61;54.08;99162.46;105902;1258;68945;-76
2023/07/30 10:59:08;;;;;;;3.40;3.10;;;;;;;27.69;53.56;99159.91;105961;1254;72677;-79
2023/07/30 11:01:45;;;;;;;5.20;3.90;;;;;;;27.60;53.41;99157.74;105838;1259;59662;-76
2023/07/30 11:04:18;;;;;;;4.70;3.90;;;;;;;27.48;54.36;99151.31;105622;1258;60160;-77
2023/07/30 11:06:49;;;;;;;4.00;3.60;;;;;;;27.49;54.62;99148.09;105673;1259;72851;-76
2023/07/30 11:09:20;;;;;;;3.60;3.20;;;;;;;27.56;54.82;99144.44;105874;1257;68762;-76
2023/07/30 11:11:48;;;;;;;4.00;3.20;;;;;;;27.64;54.81;99151.61;105720;1257;72698;-76
2023/07/30 11:14:19;;;;;;;6.00;3.40;;;;;;;27.69;54.28;99143.09;106608;1254;59783;-76
2023/07/30 11:16:51;;;;;;;4.10;3.60;;;;;;;27.65;54.66;99140.05;107448;1254;59288;-77
2023/07/30 11:19:19;;;;;;;7.70;3.70;;;;;;;27.74;54.70;99136.20;105981;1254;71802;-76
2023/07/30 11:21:48;;;;;;;3.60;3.30;;;;;;;27.84;54.86;99127.41;105582;1259;70411;-80
2023/07/30 11:24:19;;;;;;;3.90;3.50;;;;;;;28.06;54.24;99121.02;105883;1254;72787;-78
2023/07/30 11:26:57;;;;;;;3.80;3.30;;;;;;;28.37;54.72;99114.69;105665;1254;61743;-77
2023/07/30 11:29:25;;;;;;;5.40;3.90;;;;;;;28.79;54.26;99116.00;105814;1254;59621;-78
2023/07/30 11:31:56;;;;;;;5.00;4.00;;;;;;;29.33;53.74;99107.67;106050;1254;71868;-77
2023/07/30 11:34:24;;;;;;;4.70;3.60;;;;;;;29.93;53.04;99105.02;105878;1258;69298;-78